Time,TemperatureF,DewpointF,PressureIn,WindDirection,WindDirectionDegrees,WindSpeedMPH,WindSpeedGustMPH,Humidity,HourlyPrecipIn,Conditions,Clouds,dailyrainin,SoftwareType,DateUTC
2013-01-16 01:03:00,26.0,-99.9,-100.00,NW,304,0.0,1.0,-999,-99.99,,,-99.99,,2013-01-16 08:03:00,
2013-01-16 01:12:00,26.0,-99.9,-100.00,NW,304,0.0,1.0,-999,-99.99,,,-99.99,,2013-01-16 08:12:00,
2013-01-16 01:23:00,26.0,-99.9,-100.00,NW,304,0.0,1.0,-999,-99.99,,,-99.99,,2013-01-16 08:23:00,
2013-01-16 02:22:00,25.0,-99.9,-100.00,ENE,68,1.0,1.0,-999,-99.99,,,-99.99,,2013-01-16 09:22:00,
2013-01-16 02:33:00,25.0,-99.9,-100.00,SSW,202,2.0,5.0,-999,-99.99,,,-99.99,,2013-01-16 09:33:00,
2013-01-16 02:43:00,25.0,-99.9,-100.00,SSW,202,2.0,5.0,-999,-99.99,,,-99.99,,2013-01-16 09:43:00,
2013-01-16 02:53:00,25.0,-99.9,-100.00,SW,231,2.0,2.0,-999,-99.99,,,-99.99,,2013-01-16 09:53:00,
2013-01-16 03:03:00,25.0,-99.9,-100.00,SW,231,2.0,2.0,-999,-99.99,,,-99.99,,2013-01-16 10:03:00,
2013-01-16 03:22:00,23.0,-99.9,-100.00,SSW,202,5.0,8.0,-999,-99.99,,,-99.99,,2013-01-16 10:22:00,
2013-01-16 03:33:00,23.0,-99.9,-100.00,SSW,202,5.0,8.0,-999,-99.99,,,-99.99,,2013-01-16 10:33:00,
2013-01-16 04:10:00,22.0,-99.9,-100.00,SW,216,2.0,2.0,-999,-99.99,,,-99.99,,2013-01-16 11:10:00,
2013-01-16 04:53:00,22.0,-99.9,-100.00,SW,216,2.0,2.0,-999,-99.99,,,-99.99,,2013-01-16 11:53:00,
2013-01-16 05:03:00,22.0,-99.9,-100.00,SW,216,2.0,2.0,-999,-99.99,,,-99.99,,2013-01-16 12:03:00,
2013-01-16 06:10:00,25.0,-99.9,-100.00,NNW,338,2.0,3.0,-999,-99.99,,,-99.99,,2013-01-16 13:10:00,
2013-01-16 06:53:00,25.0,-99.9,-100.00,NNW,338,2.0,3.0,-999,-99.99,,,-99.99,,2013-01-16 13:53:00,
2013-01-16 07:03:00,25.0,-99.9,-100.00,NNW,338,2.0,3.0,-999,-99.99,,,-99.99,,2013-01-16 14:03:00,
2013-01-16 07:23:00,25.0,-99.9,-100.00,West,270,1.0,2.0,-999,-99.99,,,-99.99,,2013-01-16 14:23:00,
2013-01-16 07:33:00,25.0,-99.9,-100.00,West,270,1.0,2.0,-999,-99.99,,,-99.99,,2013-01-16 14:33:00,
2013-01-16 08:20:00,33.0,-99.9,-100.00,SSW,211,7.0,7.0,-999,-99.99,,,-99.99,,2013-01-16 15:20:00,
2013-01-16 08:33:00,28.0,-99.9,-100.00,South,183,2.0,6.0,-999,-99.99,,,-99.99,,2013-01-16 15:33:00,
2013-01-16 08:43:00,28.0,-99.9,-100.00,South,183,2.0,6.0,-999,-99.99,,,-99.99,,2013-01-16 15:43:00,
2013-01-16 08:53:00,28.0,-99.9,-100.00,South,183,2.0,6.0,-999,-99.99,,,-99.99,,2013-01-16 15:53:00,
2013-01-16 09:00:00,37.0,-99.9,-100.00,SSE,154,0.0,1.0,-999,-99.99,,,-99.99,,2013-01-16 16:00:00,
2013-01-16 09:04:00,33.0,-99.9,-100.00,SSW,211,7.0,7.0,-999,-99.99,,,-99.99,,2013-01-16 16:04:00,
2013-01-16 09:12:00,33.0,-99.9,-100.00,SSW,211,7.0,7.0,-999,-99.99,,,-99.99,,2013-01-16 16:12:00,
2013-01-16 09:53:00,37.0,-99.9,-100.00,SSE,154,0.0,1.0,-999,-99.99,,,-99.99,,2013-01-16 16:53:00,
2013-01-16 11:33:00,40.0,-99.9,-100.00,SSW,208,3.0,3.0,-999,-99.99,,,-99.99,,2013-01-16 18:33:00,
2013-01-16 11:43:00,40.0,-99.9,-100.00,SSW,208,3.0,3.0,-999,-99.99,,,-99.99,,2013-01-16 18:43:00,
2013-01-16 12:23:00,42.0,-99.9,-100.00,NE,50,6.0,6.0,-999,-99.99,,,-99.99,,2013-01-16 19:23:00,
2013-01-16 12:33:00,42.0,-99.9,-100.00,NE,50,6.0,6.0,-999,-99.99,,,-99.99,,2013-01-16 19:33:00,
2013-01-16 12:40:00,45.0,-99.9,-100.00,NNE,28,5.0,7.0,-999,-99.99,,,-99.99,,2013-01-16 19:40:00,
2013-01-16 13:23:00,45.0,-99.9,-100.00,NNE,28,5.0,7.0,-999,-99.99,,,-99.99,,2013-01-16 20:23:00,
2013-01-16 13:30:00,46.0,-99.9,-100.00,ENE,62,2.0,3.0,-999,-99.99,,,-99.99,,2013-01-16 20:30:00,
2013-01-16 13:33:00,45.0,-99.9,-100.00,NNE,28,5.0,7.0,-999,-99.99,,,-99.99,,2013-01-16 20:33:00,
2013-01-16 14:23:00,46.0,-99.9,-100.00,ENE,62,2.0,3.0,-999,-99.99,,,-99.99,,2013-01-16 21:23:00,
2013-01-16 16:23:00,48.0,-99.9,-100.00,SSW,202,0.0,2.0,-999,-99.99,,,-99.99,,2013-01-16 23:23:00,
2013-01-16 16:33:00,48.0,-99.9,-100.00,SSW,202,0.0,2.0,-999,-99.99,,,-99.99,,2013-01-16 23:33:00,
2013-01-16 17:53:00,47.0,-99.9,-100.00,NNE,18,2.0,3.0,-999,-99.99,,,-99.99,,2013-01-17 00:53:00,
2013-01-16 18:00:00,44.0,-99.9,-100.00,NNE,31,2.0,7.0,-999,-99.99,,,-99.99,,2013-01-17 01:00:00,
2013-01-16 18:03:00,47.0,-99.9,-100.00,SSW,202,2.0,4.0,-999,-99.99,,,-99.99,,2013-01-17 01:03:00,
2013-01-16 18:12:00,47.0,-99.9,-100.00,SSW,202,2.0,4.0,-999,-99.99,,,-99.99,,2013-01-17 01:12:00,
2013-01-16 18:22:00,47.0,-99.9,-100.00,SSW,202,2.0,4.0,-999,-99.99,,,-99.99,,2013-01-17 01:22:00,
2013-01-16 18:53:00,44.0,-99.9,-100.00,NNE,31,2.0,7.0,-999,-99.99,,,-99.99,,2013-01-17 01:53:00,
2013-01-16 19:22:00,41.0,-99.9,-100.00,NNE,28,5.0,5.0,-999,-99.99,,,-99.99,,2013-01-17 02:22:00,
2013-01-16 19:33:00,43.0,-99.9,-100.00,NNW,348,1.0,1.0,-999,-99.99,,,-99.99,,2013-01-17 02:33:00,
2013-01-16 19:43:00,43.0,-99.9,-100.00,NNW,348,1.0,1.0,-999,-99.99,,,-99.99,,2013-01-17 02:43:00,
2013-01-16 19:53:00,43.0,-99.9,-100.00,NNW,348,1.0,1.0,-999,-99.99,,,-99.99,,2013-01-17 02:53:00,
2013-01-16 21:33:00,33.0,-99.9,-100.00,ENE,71,1.0,2.0,-999,-99.99,,,-99.99,,2013-01-17 04:33:00,
2013-01-16 21:43:00,33.0,-99.9,-100.00,ENE,71,1.0,2.0,-999,-99.99,,,-99.99,,2013-01-17 04:43:00,
2013-01-16 21:53:00,33.0,-99.9,-100.00,ENE,71,1.0,2.0,-999,-99.99,,,-99.99,,2013-01-17 04:53:00,
2013-01-16 22:22:00,35.0,-99.9,-100.00,ENE,76,1.0,1.0,-999,-99.99,,,-99.99,,2013-01-17 05:22:00,
2013-01-16 22:33:00,35.0,-99.9,-100.00,ENE,76,1.0,1.0,-999,-99.99,,,-99.99,,2013-01-17 05:33:00,
2013-01-16 23:00:00,29.0,-99.9,-100.00,South,185,2.0,6.0,-999,-99.99,,,-99.99,,2013-01-17 06:00:00,
2013-01-16 23:53:00,29.0,-99.9,-100.00,South,185,2.0,6.0,-999,-99.99,,,-99.99,,2013-01-17 06:53:00,